RCF952 UNNT-UEEE
Flight info
| Callsign | RCF952 |
|---|---|
| Flight time | 3h 25m |
| Altitude | 33000 |
| Route | DIMID1K DIMID G828 NN A300 TOKMO B911 ENS W105 ERBOG/K0882F350 W39 GISUN W289 ABGUR ABGUR6C |
| Aircraft | MD11/H-SDE1E2E3FGHIJ2J3J4J5M1RWXY/LB1D1 |
Departure
| Time | 2026-05-05 10:39 |
|---|---|
| Airport | Novosibirsk Tolmachevo Airport (UNNT) |
Arrival
| Time | 2026-05-05 14:04 |
|---|---|
| Airport | Platon Oyunsky Yakutsk International Airport (UEEE) |
| Time | Latitude | Longitude | Altitude | Speed | Heading |
|---|---|---|---|---|---|
| 2026-05-05 09:54 | 55.00696 | 82.64081 | 380 ft | 0 kts | 171° |
| 2026-05-05 10:19 | 55.00697 | 82.64081 | 380 ft | 2 kts | 171° |
| 2026-05-05 10:19 | 55.00713 | 82.64076 | 380 ft | 2 kts | 171° |
| 2026-05-05 10:19 | 55.00729 | 82.64072 | 380 ft | 2 kts | 171° |
| 2026-05-05 10:19 | 55.00746 | 82.64068 | 380 ft | 2 kts | 162° |
| 2026-05-05 10:20 | 55.00760 | 82.64055 | 380 ft | 2 kts | 135° |
| 2026-05-05 10:20 | 55.00771 | 82.64032 | 380 ft | 2 kts | 111° |
| 2026-05-05 10:20 | 55.00774 | 82.64004 | 380 ft | 2 kts | 79° |
| 2026-05-05 10:20 | 55.00771 | 82.63976 | 380 ft | 2 kts | 79° |
| 2026-05-05 10:21 | 55.00768 | 82.63948 | 380 ft | 2 kts | 78° |
| 2026-05-05 10:21 | 55.00765 | 82.63925 | 380 ft | 1 kts | 78° |
| 2026-05-05 10:21 | 55.00764 | 82.63921 | 380 ft | 0 kts | 78° |
| 2026-05-05 10:25 | 55.00765 | 82.63923 | 380 ft | 1 kts | 78° |
| 2026-05-05 10:25 | 55.00768 | 82.63946 | 380 ft | 2 kts | 75° |
| 2026-05-05 10:25 | 55.00773 | 82.63977 | 380 ft | 3 kts | 71° |
| 2026-05-05 10:25 | 55.00784 | 82.64020 | 380 ft | 4 kts | 64° |
| 2026-05-05 10:26 | 55.00799 | 82.64074 | 380 ft | 6 kts | 64° |
| 2026-05-05 10:26 | 55.00818 | 82.64135 | 380 ft | 5 kts | 63° |
| 2026-05-05 10:26 | 55.00826 | 82.64187 | 380 ft | 4 kts | 77° |
| 2026-05-05 10:26 | 55.00833 | 82.64252 | 380 ft | 7 kts | 80° |
| 2026-05-05 10:27 | 55.00842 | 82.64350 | 380 ft | 10 kts | 81° |
| 2026-05-05 10:27 | 55.00854 | 82.64482 | 380 ft | 12 kts | 81° |
| 2026-05-05 10:27 | 55.00869 | 82.64646 | 380 ft | 14 kts | 81° |
| 2026-05-05 10:27 | 55.00881 | 82.64790 | 380 ft | 8 kts | 81° |
| 2026-05-05 10:28 | 55.00886 | 82.64871 | 380 ft | 4 kts | 91° |
| 2026-05-05 10:28 | 55.00882 | 82.64911 | 380 ft | 4 kts | 99° |
| 2026-05-05 10:28 | 55.00876 | 82.64969 | 380 ft | 6 kts | 101° |
| 2026-05-05 10:28 | 55.00873 | 82.65050 | 380 ft | 6 kts | 86° |
| 2026-05-05 10:29 | 55.00879 | 82.65132 | 380 ft | 8 kts | 82° |
| 2026-05-05 10:29 | 55.00884 | 82.65240 | 380 ft | 10 kts | 87° |
| 2026-05-05 10:29 | 55.00892 | 82.65371 | 380 ft | 12 kts | 82° |
| 2026-05-05 10:29 | 55.00905 | 82.65522 | 380 ft | 12 kts | 81° |
| 2026-05-05 10:30 | 55.00913 | 82.65616 | 380 ft | 13 kts | 81° |
| 2026-05-05 10:30 | 55.00933 | 82.65826 | 380 ft | 13 kts | 81° |
| 2026-05-05 10:30 | 55.00945 | 82.65963 | 380 ft | 10 kts | 82° |
| 2026-05-05 10:30 | 55.00955 | 82.66075 | 380 ft | 9 kts | 78° |
| 2026-05-05 10:31 | 55.00968 | 82.66131 | 380 ft | 7 kts | 65° |
| 2026-05-05 10:31 | 55.00984 | 82.66197 | 380 ft | 6 kts | 69° |
| 2026-05-05 10:31 | 55.00999 | 82.66271 | 380 ft | 8 kts | 70° |
| 2026-05-05 10:31 | 55.01021 | 82.66378 | 380 ft | 11 kts | 70° |
| 2026-05-05 10:32 | 55.01050 | 82.66510 | 380 ft | 12 kts | 68° |
| 2026-05-05 10:32 | 55.01084 | 82.66648 | 380 ft | 11 kts | 68° |
| 2026-05-05 10:32 | 55.01089 | 82.66675 | 380 ft | 2 kts | 74° |
| 2026-05-05 10:32 | 55.01096 | 82.66721 | 380 ft | 5 kts | 77° |
| 2026-05-05 10:33 | 55.01099 | 82.66789 | 380 ft | 6 kts | 88° |
| 2026-05-05 10:33 | 55.01093 | 82.66856 | 380 ft | 5 kts | 107° |
| 2026-05-05 10:33 | 55.01082 | 82.66899 | 380 ft | 4 kts | 111° |
| 2026-05-05 10:33 | 55.01080 | 82.66926 | 380 ft | 2 kts | 93° |
| 2026-05-05 10:34 | 55.01081 | 82.66954 | 380 ft | 3 kts | 86° |
| 2026-05-05 10:34 | 55.01085 | 82.67015 | 380 ft | 7 kts | 83° |
| 2026-05-05 10:34 | 55.01095 | 82.67121 | 380 ft | 11 kts | 81° |
| 2026-05-05 10:34 | 55.01107 | 82.67271 | 380 ft | 13 kts | 84° |
| 2026-05-05 10:35 | 55.01113 | 82.67417 | 380 ft | 8 kts | 79° |
| 2026-05-05 10:35 | 55.01133 | 82.67468 | 380 ft | 4 kts | 39° |
| 2026-05-05 10:35 | 55.01143 | 82.67479 | 380 ft | 2 kts | 34° |
| 2026-05-05 10:35 | 55.01161 | 82.67499 | 380 ft | 2 kts | 31° |
| 2026-05-05 10:36 | 55.01183 | 82.67523 | 380 ft | 6 kts | 32° |
| 2026-05-05 10:36 | 55.01224 | 82.67568 | 380 ft | 9 kts | 32° |
| 2026-05-05 10:36 | 55.01287 | 82.67635 | 380 ft | 11 kts | 30° |
| 2026-05-05 10:36 | 55.01342 | 82.67692 | 380 ft | 10 kts | 30° |
| 2026-05-05 10:37 | 55.01403 | 82.67755 | 380 ft | 10 kts | 30° |
| 2026-05-05 10:37 | 55.01445 | 82.67779 | 379 ft | 5 kts | 3° |
| 2026-05-05 10:37 | 55.01464 | 82.67765 | 379 ft | 2 kts | 328° |
| 2026-05-05 10:37 | 55.01473 | 82.67750 | 379 ft | 2 kts | 314° |
| 2026-05-05 10:38 | 55.01478 | 82.67735 | 379 ft | 1 kts | 297° |
| 2026-05-05 10:38 | 55.01480 | 82.67716 | 379 ft | 2 kts | 281° |
| 2026-05-05 10:38 | 55.01480 | 82.67675 | 379 ft | 5 kts | 266° |
| 2026-05-05 10:38 | 55.01472 | 82.67570 | 378 ft | 13 kts | 261° |
| 2026-05-05 10:39 | 55.01431 | 82.67122 | 381 ft | 73 kts | 261° |
| 2026-05-05 10:39 | 55.01312 | 82.65810 | 380 ft | 143 kts | 261° |
| 2026-05-05 10:39 | 55.01127 | 82.63804 | 457 ft | 184 kts | 262° |
| 2026-05-05 10:39 | 55.00908 | 82.61566 | 1040 ft | 188 kts | 261° |
| 2026-05-05 10:40 | 55.00741 | 82.59358 | 1984 ft | 179 kts | 263° |
| 2026-05-05 10:40 | 55.00575 | 82.57302 | 2917 ft | 168 kts | 260° |
| 2026-05-05 10:40 | 55.00387 | 82.55232 | 3383 ft | 184 kts | 262° |
| 2026-05-05 10:40 | 55.00469 | 82.52894 | 3651 ft | 208 kts | 284° |
| 2026-05-05 10:41 | 55.01263 | 82.50586 | 3840 ft | 238 kts | 306° |
| 2026-05-05 10:41 | 55.02471 | 82.48444 | 4013 ft | 263 kts | 311° |
| 2026-05-05 10:41 | 55.03823 | 82.46247 | 4805 ft | 270 kts | 311° |
| 2026-05-05 10:41 | 55.05206 | 82.44030 | 5276 ft | 268 kts | 311° |
| 2026-05-05 10:42 | 55.07930 | 82.39681 | 7228 ft | 265 kts | 311° |
| 2026-05-05 10:42 | 55.08611 | 82.38589 | 7668 ft | 266 kts | 311° |
| 2026-05-05 10:43 | 55.08835 | 82.38229 | 7813 ft | 266 kts | 311° |
| 2026-05-05 10:44 | 55.11719 | 82.33596 | 9644 ft | 269 kts | 311° |
| 2026-05-05 10:44 | 55.13103 | 82.31366 | 10234 ft | 279 kts | 311° |
| 2026-05-05 10:44 | 55.14592 | 82.28947 | 10357 ft | 304 kts | 312° |
| 2026-05-05 10:44 | 55.16195 | 82.26348 | 10694 ft | 320 kts | 312° |
| 2026-05-05 10:45 | 55.17840 | 82.23695 | 11444 ft | 322 kts | 313° |
| 2026-05-05 10:45 | 55.19499 | 82.21023 | 12173 ft | 325 kts | 313° |
| 2026-05-05 10:45 | 55.21263 | 82.18558 | 12801 ft | 335 kts | 325° |
| 2026-05-05 10:45 | 55.23496 | 82.17139 | 13481 ft | 349 kts | 341° |
| 2026-05-05 10:46 | 55.25939 | 82.16528 | 14066 ft | 358 kts | 347° |
| 2026-05-05 10:46 | 55.28441 | 82.16189 | 14630 ft | 363 kts | 349° |
| 2026-05-05 10:46 | 55.30975 | 82.15896 | 15200 ft | 366 kts | 349° |
| 2026-05-05 10:46 | 55.33530 | 82.15584 | 15734 ft | 370 kts | 349° |
| 2026-05-05 10:47 | 55.36132 | 82.15608 | 16254 ft | 380 kts | 359° |
| 2026-05-05 10:47 | 55.38720 | 82.16790 | 16790 ft | 398 kts | 18° |
| 2026-05-05 10:47 | 55.41071 | 82.19560 | 17304 ft | 418 kts | 38° |
| 2026-05-05 10:47 | 55.42869 | 82.23702 | 17778 ft | 435 kts | 57° |
| 2026-05-05 10:48 | 55.43974 | 82.28743 | 18264 ft | 448 kts | 73° |
| 2026-05-05 10:48 | 55.44519 | 82.34192 | 18674 ft | 455 kts | 79° |
| 2026-05-05 10:48 | 55.44902 | 82.39746 | 19088 ft | 458 kts | 80° |
| 2026-05-05 10:48 | 55.45331 | 82.45336 | 19511 ft | 460 kts | 78° |
| 2026-05-05 10:49 | 55.45860 | 82.50916 | 19927 ft | 462 kts | 76° |
| 2026-05-05 10:49 | 55.46616 | 82.56406 | 20305 ft | 460 kts | 66° |
| 2026-05-05 10:49 | 55.47973 | 82.61359 | 20715 ft | 451 kts | 49° |
| 2026-05-05 10:49 | 55.50030 | 82.65404 | 21101 ft | 438 kts | 31° |
| 2026-05-05 10:50 | 55.52583 | 82.68141 | 21502 ft | 423 kts | 14° |
| 2026-05-05 10:50 | 55.55376 | 82.69392 | 21891 ft | 410 kts | 358° |
| 2026-05-05 10:50 | 55.58211 | 82.69607 | 22286 ft | 406 kts | 352° |
| 2026-05-05 10:50 | 55.61038 | 82.69480 | 22735 ft | 407 kts | 351° |
| 2026-05-05 10:51 | 55.63887 | 82.69317 | 23191 ft | 411 kts | 351° |
| 2026-05-05 10:51 | 55.66763 | 82.69218 | 23654 ft | 414 kts | 352° |
| 2026-05-05 10:51 | 55.69660 | 82.69195 | 24064 ft | 417 kts | 353° |
| 2026-05-05 10:51 | 55.72562 | 82.69230 | 24477 ft | 419 kts | 353° |
| 2026-05-05 10:52 | 55.75490 | 82.69300 | 24903 ft | 421 kts | 353° |
| 2026-05-05 10:52 | 55.78396 | 82.69386 | 25328 ft | 423 kts | 353° |
| 2026-05-05 10:52 | 55.81358 | 82.69482 | 25760 ft | 425 kts | 354° |
| 2026-05-05 10:52 | 55.84335 | 82.69580 | 26178 ft | 428 kts | 354° |
| 2026-05-05 10:53 | 55.87321 | 82.69678 | 26582 ft | 430 kts | 354° |
| 2026-05-05 10:53 | 55.90322 | 82.69790 | 26989 ft | 433 kts | 355° |
| 2026-05-05 10:53 | 55.93352 | 82.70162 | 27388 ft | 440 kts | 0° |
| 2026-05-05 10:53 | 55.96360 | 82.71159 | 27770 ft | 450 kts | 8° |
| 2026-05-05 10:54 | 55.99349 | 82.73026 | 28165 ft | 461 kts | 17° |
| 2026-05-05 10:54 | 56.02205 | 82.75824 | 28537 ft | 473 kts | 27° |
| 2026-05-05 10:54 | 56.04828 | 82.79520 | 28904 ft | 485 kts | 37° |
| 2026-05-05 10:54 | 56.07102 | 82.83973 | 29264 ft | 496 kts | 47° |
| 2026-05-05 10:55 | 56.09012 | 82.89238 | 29599 ft | 507 kts | 57° |
| 2026-05-05 10:55 | 56.10425 | 82.95088 | 29914 ft | 516 kts | 67° |
| 2026-05-05 10:55 | 56.11401 | 83.01257 | 30178 ft | 523 kts | 72° |
| 2026-05-05 10:55 | 56.12174 | 83.07648 | 30432 ft | 526 kts | 75° |
| 2026-05-05 10:56 | 56.12880 | 83.14101 | 30754 ft | 527 kts | 75° |
| 2026-05-05 10:56 | 56.13594 | 83.20570 | 31078 ft | 527 kts | 74° |
| 2026-05-05 10:56 | 56.14340 | 83.27006 | 31413 ft | 526 kts | 73° |
| 2026-05-05 10:56 | 56.15117 | 83.33426 | 31739 ft | 526 kts | 73° |
| 2026-05-05 10:57 | 56.15933 | 83.39834 | 32049 ft | 525 kts | 72° |
| 2026-05-05 10:57 | 56.16763 | 83.46133 | 32352 ft | 525 kts | 72° |
| 2026-05-05 10:57 | 56.17616 | 83.52504 | 32660 ft | 525 kts | 71° |
| 2026-05-05 10:57 | 56.18471 | 83.58877 | 32898 ft | 526 kts | 72° |
| 2026-05-05 10:58 | 56.19325 | 83.65265 | 32963 ft | 527 kts | 72° |
| 2026-05-05 10:58 | 56.21022 | 83.78109 | 32978 ft | 529 kts | 72° |
| 2026-05-05 10:59 | 56.22705 | 83.91023 | 32977 ft | 530 kts | 72° |
| 2026-05-05 10:59 | 56.24342 | 84.03889 | 32977 ft | 532 kts | 72° |
| 2026-05-05 11:00 | 56.25946 | 84.16884 | 32978 ft | 533 kts | 72° |
| 2026-05-05 11:00 | 56.27552 | 84.29924 | 32983 ft | 534 kts | 72° |
| 2026-05-05 11:01 | 56.28887 | 84.40780 | 32986 ft | 535 kts | 72° |
| 2026-05-05 11:01 | 56.30486 | 84.53871 | 32983 ft | 535 kts | 72° |
| 2026-05-05 11:02 | 56.32071 | 84.66981 | 32982 ft | 536 kts | 72° |
| 2026-05-05 11:02 | 56.33644 | 84.80127 | 32982 ft | 536 kts | 73° |
| 2026-05-05 11:03 | 56.35194 | 84.93203 | 32976 ft | 537 kts | 73° |
| 2026-05-05 11:03 | 56.36745 | 85.06418 | 32970 ft | 537 kts | 73° |
| 2026-05-05 11:04 | 56.38353 | 85.19496 | 32964 ft | 533 kts | 68° |
| 2026-05-05 11:04 | 56.39649 | 85.25704 | 32969 ft | 524 kts | 57° |
| 2026-05-05 11:04 | 56.41401 | 85.31423 | 32971 ft | 517 kts | 50° |
| 2026-05-05 11:05 | 56.45420 | 85.42173 | 32977 ft | 514 kts | 48° |
| 2026-05-05 11:05 | 56.49373 | 85.52879 | 32981 ft | 515 kts | 50° |
| 2026-05-05 11:06 | 56.53204 | 85.63894 | 32985 ft | 516 kts | 51° |
| 2026-05-05 11:06 | 56.56947 | 85.74927 | 32989 ft | 516 kts | 52° |
| 2026-05-05 11:07 | 56.60702 | 85.86048 | 32991 ft | 515 kts | 52° |
| 2026-05-05 11:07 | 56.64450 | 85.97173 | 32989 ft | 515 kts | 52° |
| 2026-05-05 11:08 | 56.68142 | 86.08230 | 32985 ft | 515 kts | 52° |
| 2026-05-05 11:08 | 56.71862 | 86.19370 | 32983 ft | 514 kts | 52° |
| 2026-05-05 11:09 | 56.75589 | 86.30522 | 32980 ft | 514 kts | 52° |
| 2026-05-05 11:09 | 56.79290 | 86.41630 | 32979 ft | 514 kts | 53° |
| 2026-05-05 11:10 | 56.82994 | 86.52803 | 32977 ft | 514 kts | 53° |
| 2026-05-05 11:10 | 56.86686 | 86.63994 | 32982 ft | 514 kts | 53° |
| 2026-05-05 11:11 | 56.90348 | 86.75146 | 32969 ft | 514 kts | 53° |
| 2026-05-05 11:11 | 56.94024 | 86.86394 | 32979 ft | 514 kts | 53° |
| 2026-05-05 11:12 | 56.97695 | 86.97679 | 32984 ft | 515 kts | 53° |
| 2026-05-05 11:12 | 57.01317 | 87.08947 | 32984 ft | 515 kts | 54° |
| 2026-05-05 11:13 | 57.04937 | 87.20361 | 32986 ft | 515 kts | 54° |
| 2026-05-05 11:13 | 57.08561 | 87.31749 | 32986 ft | 516 kts | 54° |
| 2026-05-05 11:14 | 57.12174 | 87.43104 | 32987 ft | 516 kts | 54° |
| 2026-05-05 11:14 | 57.15799 | 87.54541 | 32990 ft | 516 kts | 54° |
| 2026-05-05 11:15 | 57.19389 | 87.65930 | 32985 ft | 516 kts | 54° |
| 2026-05-05 11:15 | 57.22989 | 87.77408 | 33000 ft | 516 kts | 54° |
| 2026-05-05 11:16 | 57.26582 | 87.88919 | 33002 ft | 516 kts | 55° |
| 2026-05-05 11:16 | 57.30134 | 88.00354 | 33007 ft | 516 kts | 55° |
| 2026-05-05 11:17 | 57.33700 | 88.11888 | 32999 ft | 515 kts | 55° |
| 2026-05-05 11:17 | 57.37213 | 88.23471 | 33002 ft | 515 kts | 56° |
| 2026-05-05 11:18 | 57.40705 | 88.35093 | 33002 ft | 515 kts | 56° |
| 2026-05-05 11:18 | 57.44180 | 88.46619 | 33001 ft | 514 kts | 56° |
| 2026-05-05 11:19 | 57.47680 | 88.58235 | 33002 ft | 514 kts | 56° |
| 2026-05-05 11:19 | 57.51160 | 88.69840 | 33005 ft | 513 kts | 57° |
| 2026-05-05 11:20 | 57.54607 | 88.81397 | 32996 ft | 512 kts | 57° |
| 2026-05-05 11:20 | 57.58053 | 88.93011 | 32998 ft | 511 kts | 57° |
| 2026-05-05 11:21 | 57.61484 | 89.04631 | 32992 ft | 510 kts | 57° |
| 2026-05-05 11:21 | 57.64896 | 89.16246 | 32993 ft | 510 kts | 58° |
| 2026-05-05 11:22 | 57.68291 | 89.27860 | 32983 ft | 508 kts | 58° |
| 2026-05-05 11:22 | 57.71645 | 89.39406 | 32981 ft | 508 kts | 58° |
| 2026-05-05 11:23 | 57.74984 | 89.51048 | 32977 ft | 507 kts | 58° |
| 2026-05-05 11:23 | 57.78334 | 89.62661 | 32973 ft | 505 kts | 58° |
| 2026-05-05 11:24 | 57.81668 | 89.74179 | 32978 ft | 504 kts | 58° |
| 2026-05-05 11:24 | 57.85008 | 89.85755 | 32967 ft | 504 kts | 58° |
| 2026-05-05 11:25 | 57.88330 | 89.97332 | 32973 ft | 503 kts | 59° |
| 2026-05-05 11:25 | 57.91648 | 90.08952 | 32968 ft | 503 kts | 59° |
| 2026-05-05 11:26 | 57.94927 | 90.20500 | 32965 ft | 503 kts | 59° |
| 2026-05-05 11:26 | 57.98212 | 90.32125 | 32966 ft | 502 kts | 59° |
| 2026-05-05 11:27 | 58.01483 | 90.43762 | 32962 ft | 501 kts | 59° |
| 2026-05-05 11:27 | 58.04739 | 90.55401 | 32958 ft | 501 kts | 59° |
| 2026-05-05 11:28 | 58.07958 | 90.66968 | 32957 ft | 500 kts | 59° |
| 2026-05-05 11:28 | 58.11175 | 90.78625 | 32953 ft | 499 kts | 60° |
| 2026-05-05 11:29 | 58.14336 | 90.90335 | 32952 ft | 498 kts | 60° |
| 2026-05-05 11:29 | 58.17505 | 91.02019 | 32953 ft | 498 kts | 60° |
| 2026-05-05 11:30 | 58.20656 | 91.13592 | 32955 ft | 497 kts | 59° |
| 2026-05-05 11:30 | 58.23815 | 91.25228 | 32944 ft | 496 kts | 59° |
| 2026-05-05 11:31 | 58.26958 | 91.36892 | 32950 ft | 495 kts | 60° |
| 2026-05-05 11:31 | 58.30067 | 91.48560 | 32959 ft | 494 kts | 60° |
| 2026-05-05 11:32 | 58.33169 | 91.60210 | 32957 ft | 493 kts | 60° |
| 2026-05-05 11:32 | 58.36244 | 91.71777 | 32965 ft | 492 kts | 60° |
| 2026-05-05 11:33 | 58.39323 | 91.83407 | 32964 ft | 491 kts | 60° |
| 2026-05-05 11:33 | 58.42390 | 91.95058 | 32968 ft | 490 kts | 60° |
| 2026-05-05 11:34 | 58.45435 | 92.06683 | 32972 ft | 489 kts | 60° |
| 2026-05-05 11:34 | 58.48342 | 92.18350 | 32982 ft | 489 kts | 62° |
| 2026-05-05 11:35 | 58.51129 | 92.30212 | 32988 ft | 488 kts | 62° |
| 2026-05-05 11:35 | 58.53907 | 92.42086 | 32991 ft | 487 kts | 62° |
| 2026-05-05 11:36 | 58.56665 | 92.53849 | 32995 ft | 487 kts | 62° |
| 2026-05-05 11:36 | 58.59436 | 92.65700 | 33001 ft | 486 kts | 63° |
| 2026-05-05 11:37 | 58.62193 | 92.77556 | 33009 ft | 485 kts | 63° |
| 2026-05-05 11:37 | 58.64927 | 92.89394 | 33015 ft | 485 kts | 63° |
| 2026-05-05 11:38 | 58.67604 | 93.01185 | 33022 ft | 484 kts | 63° |
| 2026-05-05 11:38 | 58.70299 | 93.13056 | 33034 ft | 484 kts | 63° |
| 2026-05-05 11:39 | 58.72996 | 93.24926 | 33018 ft | 484 kts | 63° |
| 2026-05-05 11:39 | 58.75683 | 93.36801 | 33037 ft | 483 kts | 63° |
| 2026-05-05 11:40 | 58.78358 | 93.48688 | 33039 ft | 483 kts | 63° |
| 2026-05-05 11:40 | 58.81003 | 93.60509 | 33045 ft | 483 kts | 64° |
| 2026-05-05 11:41 | 58.83649 | 93.72407 | 33046 ft | 482 kts | 64° |
| 2026-05-05 11:41 | 58.86282 | 93.84314 | 33050 ft | 482 kts | 64° |
| 2026-05-05 11:42 | 58.88909 | 93.96256 | 33057 ft | 482 kts | 64° |
| 2026-05-05 11:42 | 58.91481 | 94.08143 | 33064 ft | 481 kts | 64° |
| 2026-05-05 11:43 | 58.94042 | 94.20131 | 33061 ft | 481 kts | 64° |
| 2026-05-05 11:43 | 58.96614 | 94.32098 | 33058 ft | 480 kts | 64° |
| 2026-05-05 11:44 | 58.99168 | 94.43981 | 33061 ft | 479 kts | 64° |
| 2026-05-05 11:44 | 59.01726 | 94.55940 | 33059 ft | 479 kts | 64° |
| 2026-05-05 11:45 | 59.04267 | 94.67892 | 33061 ft | 478 kts | 64° |
| 2026-05-05 11:45 | 59.06774 | 94.79755 | 33063 ft | 477 kts | 64° |
| 2026-05-05 11:46 | 59.09287 | 94.91719 | 33058 ft | 477 kts | 64° |
| 2026-05-05 11:46 | 59.11785 | 95.03679 | 33063 ft | 476 kts | 64° |
| 2026-05-05 11:47 | 59.14272 | 95.15657 | 33062 ft | 476 kts | 64° |
| 2026-05-05 11:47 | 59.16730 | 95.27568 | 33063 ft | 476 kts | 65° |
| 2026-05-05 11:48 | 59.20421 | 95.45583 | 33066 ft | 476 kts | 65° |
| 2026-05-05 11:48 | 59.22817 | 95.57537 | 33063 ft | 476 kts | 66° |
| 2026-05-05 11:49 | 59.25199 | 95.69634 | 33064 ft | 476 kts | 66° |
| 2026-05-05 11:49 | 59.27591 | 95.81700 | 33064 ft | 475 kts | 66° |
| 2026-05-05 11:50 | 59.29987 | 95.93755 | 33067 ft | 475 kts | 66° |
| 2026-05-05 11:50 | 59.32362 | 96.05743 | 33052 ft | 474 kts | 66° |
| 2026-05-05 11:51 | 59.34736 | 96.17802 | 33064 ft | 474 kts | 66° |
| 2026-05-05 11:51 | 59.37099 | 96.29882 | 33076 ft | 474 kts | 66° |
| 2026-05-05 11:52 | 59.39056 | 96.39948 | 33059 ft | 473 kts | 66° |
| 2026-05-05 11:52 | 59.41385 | 96.51992 | 33060 ft | 473 kts | 66° |
| 2026-05-05 11:53 | 59.44093 | 96.66092 | 33059 ft | 473 kts | 67° |
| 2026-05-05 11:53 | 59.45987 | 96.76187 | 33054 ft | 473 kts | 67° |
| 2026-05-05 11:54 | 59.48252 | 96.88324 | 33057 ft | 472 kts | 67° |
| 2026-05-05 11:54 | 59.50528 | 97.00461 | 33052 ft | 472 kts | 67° |
| 2026-05-05 11:55 | 59.52801 | 97.12598 | 33054 ft | 471 kts | 67° |
| 2026-05-05 11:55 | 59.55042 | 97.24637 | 33050 ft | 471 kts | 67° |
| 2026-05-05 11:56 | 59.57288 | 97.36781 | 33050 ft | 471 kts | 68° |
| 2026-05-05 11:56 | 59.59519 | 97.48923 | 33049 ft | 470 kts | 68° |
| 2026-05-05 11:57 | 59.61737 | 97.61069 | 33044 ft | 470 kts | 68° |
| 2026-05-05 11:57 | 59.63932 | 97.73172 | 33050 ft | 470 kts | 68° |
| 2026-05-05 11:58 | 59.66124 | 97.85334 | 33047 ft | 470 kts | 68° |
| 2026-05-05 11:58 | 59.68309 | 97.97537 | 33050 ft | 469 kts | 68° |
| 2026-05-05 11:59 | 59.70468 | 98.09670 | 33041 ft | 469 kts | 68° |
| 2026-05-05 11:59 | 59.72626 | 98.21900 | 33045 ft | 469 kts | 69° |
| 2026-05-05 12:00 | 59.74707 | 98.34123 | 33049 ft | 469 kts | 69° |
| 2026-05-05 12:00 | 59.76807 | 98.46402 | 33043 ft | 469 kts | 69° |
| 2026-05-05 12:01 | 59.78911 | 98.58587 | 33048 ft | 469 kts | 69° |
| 2026-05-05 12:01 | 59.81029 | 98.70884 | 33053 ft | 469 kts | 69° |
| 2026-05-05 12:02 | 59.83135 | 98.83188 | 33051 ft | 469 kts | 69° |
| 2026-05-05 12:02 | 59.85217 | 98.95445 | 33054 ft | 469 kts | 70° |
| 2026-05-05 12:03 | 59.87298 | 99.07781 | 33055 ft | 469 kts | 70° |
| 2026-05-05 12:03 | 59.89368 | 99.20129 | 33054 ft | 470 kts | 70° |
| 2026-05-05 12:04 | 59.91413 | 99.32419 | 33055 ft | 470 kts | 70° |
| 2026-05-05 12:04 | 59.93459 | 99.44794 | 33060 ft | 470 kts | 70° |
| 2026-05-05 12:05 | 59.95493 | 99.57185 | 33061 ft | 470 kts | 70° |
| 2026-05-05 12:05 | 59.97515 | 99.69591 | 33064 ft | 470 kts | 71° |
| 2026-05-05 12:06 | 59.99510 | 99.82033 | 33065 ft | 470 kts | 71° |
| 2026-05-05 12:06 | 60.01448 | 99.94513 | 33068 ft | 470 kts | 71° |
| 2026-05-05 12:07 | 60.03411 | 100.07002 | 33069 ft | 470 kts | 71° |
| 2026-05-05 12:07 | 60.05372 | 100.19405 | 33069 ft | 470 kts | 71° |
| 2026-05-05 12:08 | 60.07340 | 100.31899 | 33070 ft | 470 kts | 71° |
| 2026-05-05 12:08 | 60.09283 | 100.44329 | 33071 ft | 470 kts | 72° |
| 2026-05-05 12:09 | 60.11226 | 100.56852 | 33076 ft | 470 kts | 72° |
| 2026-05-05 12:09 | 60.13157 | 100.69401 | 33076 ft | 470 kts | 72° |
| 2026-05-05 12:10 | 60.15054 | 100.81969 | 33077 ft | 470 kts | 72° |
| 2026-05-05 12:10 | 60.16939 | 100.94445 | 33079 ft | 470 kts | 72° |
| 2026-05-05 12:11 | 60.18848 | 101.07026 | 33080 ft | 470 kts | 72° |
| 2026-05-05 12:11 | 60.20752 | 101.19633 | 33081 ft | 470 kts | 72° |
| 2026-05-05 12:12 | 60.22641 | 101.32229 | 33083 ft | 470 kts | 72° |
| 2026-05-05 12:12 | 60.24507 | 101.44767 | 33083 ft | 470 kts | 72° |
| 2026-05-05 12:13 | 60.26373 | 101.57402 | 33087 ft | 470 kts | 72° |
| 2026-05-05 12:13 | 60.28228 | 101.70062 | 33083 ft | 470 kts | 72° |
| 2026-05-05 12:14 | 60.30056 | 101.82634 | 33085 ft | 470 kts | 73° |
| 2026-05-05 12:14 | 60.31886 | 101.95308 | 33085 ft | 470 kts | 73° |
| 2026-05-05 12:15 | 60.33701 | 102.07987 | 33083 ft | 470 kts | 73° |
| 2026-05-05 12:15 | 60.35508 | 102.20704 | 33085 ft | 470 kts | 73° |
| 2026-05-05 12:16 | 60.37399 | 102.33262 | 33084 ft | 470 kts | 70° |
| 2026-05-05 12:16 | 60.39592 | 102.45693 | 33089 ft | 469 kts | 69° |
| 2026-05-05 12:17 | 60.41864 | 102.58092 | 33086 ft | 469 kts | 69° |
| 2026-05-05 12:17 | 60.44117 | 102.70489 | 33086 ft | 469 kts | 69° |
| 2026-05-05 12:18 | 60.46336 | 102.82846 | 33086 ft | 469 kts | 69° |
| 2026-05-05 12:18 | 60.48555 | 102.95308 | 33091 ft | 469 kts | 69° |
| 2026-05-05 12:19 | 60.50745 | 103.07821 | 33089 ft | 469 kts | 69° |
| 2026-05-05 12:19 | 60.52930 | 103.20322 | 33086 ft | 469 kts | 69° |
| 2026-05-05 12:20 | 60.55105 | 103.32753 | 33082 ft | 469 kts | 69° |
| 2026-05-05 12:20 | 60.57293 | 103.45318 | 33086 ft | 469 kts | 69° |
| 2026-05-05 12:21 | 60.59445 | 103.57756 | 33081 ft | 469 kts | 69° |
| 2026-05-05 12:21 | 60.61603 | 103.70314 | 33085 ft | 469 kts | 70° |
| 2026-05-05 12:22 | 60.63747 | 103.82880 | 33083 ft | 469 kts | 70° |
| 2026-05-05 12:22 | 60.65878 | 103.95459 | 33079 ft | 469 kts | 70° |
| 2026-05-05 12:23 | 60.68001 | 104.08074 | 33081 ft | 469 kts | 70° |
| 2026-05-05 12:23 | 60.70106 | 104.20668 | 33081 ft | 469 kts | 70° |
| 2026-05-05 12:24 | 60.72182 | 104.33212 | 33079 ft | 469 kts | 70° |
| 2026-05-05 12:24 | 60.74208 | 104.45892 | 33076 ft | 469 kts | 71° |
| 2026-05-05 12:25 | 60.76232 | 104.58509 | 33073 ft | 469 kts | 70° |
| 2026-05-05 12:25 | 60.78279 | 104.71187 | 33073 ft | 469 kts | 70° |
| 2026-05-05 12:26 | 60.80322 | 104.83883 | 33072 ft | 469 kts | 70° |
| 2026-05-05 12:26 | 60.82352 | 104.96583 | 33070 ft | 468 kts | 70° |
| 2026-05-05 12:27 | 60.84356 | 105.09218 | 33068 ft | 468 kts | 71° |
| 2026-05-05 12:27 | 60.86361 | 105.21951 | 33068 ft | 468 kts | 71° |
| 2026-05-05 12:28 | 60.88353 | 105.34698 | 33070 ft | 468 kts | 71° |
| 2026-05-05 12:28 | 60.90322 | 105.47385 | 33063 ft | 468 kts | 71° |
| 2026-05-05 12:29 | 60.92293 | 105.60183 | 33064 ft | 468 kts | 71° |
| 2026-05-05 12:29 | 60.94250 | 105.72982 | 33058 ft | 468 kts | 71° |
| 2026-05-05 12:30 | 60.96180 | 105.85701 | 33064 ft | 468 kts | 71° |
| 2026-05-05 12:30 | 60.98095 | 105.98559 | 33041 ft | 469 kts | 71° |
| 2026-05-05 12:31 | 60.99950 | 106.11439 | 33063 ft | 469 kts | 71° |
| 2026-05-05 12:31 | 61.01819 | 106.24244 | 33048 ft | 469 kts | 71° |
| 2026-05-05 12:32 | 61.03716 | 106.37151 | 33046 ft | 469 kts | 71° |
| 2026-05-05 12:32 | 61.05591 | 106.49976 | 33047 ft | 469 kts | 71° |
| 2026-05-05 12:33 | 61.07463 | 106.62878 | 33056 ft | 469 kts | 71° |
| 2026-05-05 12:33 | 61.09324 | 106.75813 | 33043 ft | 469 kts | 71° |
| 2026-05-05 12:34 | 61.11171 | 106.88755 | 33043 ft | 469 kts | 71° |
| 2026-05-05 12:34 | 61.12993 | 107.01619 | 33040 ft | 469 kts | 71° |
| 2026-05-05 12:35 | 61.14817 | 107.14601 | 33039 ft | 469 kts | 71° |
| 2026-05-05 12:35 | 61.16623 | 107.27558 | 33043 ft | 469 kts | 72° |
| 2026-05-05 12:36 | 61.18428 | 107.40613 | 33038 ft | 469 kts | 72° |
| 2026-05-05 12:36 | 61.20205 | 107.53568 | 33037 ft | 469 kts | 72° |
| 2026-05-05 12:37 | 61.21942 | 107.66640 | 33039 ft | 470 kts | 72° |
| 2026-05-05 12:37 | 61.23649 | 107.79764 | 33039 ft | 470 kts | 72° |
| 2026-05-05 12:38 | 61.25379 | 107.92853 | 33035 ft | 470 kts | 72° |
| 2026-05-05 12:38 | 61.27146 | 108.05925 | 33370 ft | 469 kts | 71° |
| 2026-05-05 12:39 | 61.28089 | 108.12426 | 33713 ft | 468 kts | 70° |
| 2026-05-05 12:39 | 61.29038 | 108.18810 | 34018 ft | 467 kts | 70° |
| 2026-05-05 12:39 | 61.30005 | 108.25257 | 34268 ft | 467 kts | 70° |
| 2026-05-05 12:39 | 61.30972 | 108.31720 | 34466 ft | 467 kts | 70° |
| 2026-05-05 12:40 | 61.31938 | 108.38202 | 34682 ft | 468 kts | 70° |
| 2026-05-05 12:40 | 61.32898 | 108.44690 | 34880 ft | 468 kts | 70° |
| 2026-05-05 12:40 | 61.33854 | 108.51191 | 34997 ft | 469 kts | 70° |
| 2026-05-05 12:40 | 61.34795 | 108.57621 | 35024 ft | 469 kts | 70° |
| 2026-05-05 12:41 | 61.36687 | 108.70637 | 35032 ft | 469 kts | 70° |
| 2026-05-05 12:41 | 61.38553 | 108.83707 | 35031 ft | 469 kts | 71° |
| 2026-05-05 12:42 | 61.40397 | 108.96785 | 35028 ft | 469 kts | 71° |
| 2026-05-05 12:42 | 61.42250 | 109.09889 | 35032 ft | 470 kts | 71° |
| 2026-05-05 12:43 | 61.44088 | 109.22930 | 35036 ft | 470 kts | 71° |
| 2026-05-05 12:43 | 61.45924 | 109.36059 | 35037 ft | 470 kts | 71° |
| 2026-05-05 12:44 | 61.47752 | 109.49235 | 35024 ft | 470 kts | 71° |
| 2026-05-05 12:44 | 61.49552 | 109.62319 | 35026 ft | 471 kts | 71° |
| 2026-05-05 12:45 | 61.51352 | 109.75513 | 35027 ft | 471 kts | 71° |
| 2026-05-05 12:45 | 61.52841 | 109.86508 | 35030 ft | 471 kts | 71° |
| 2026-05-05 12:46 | 61.54619 | 109.99737 | 35027 ft | 471 kts | 71° |
| 2026-05-05 12:46 | 61.56388 | 110.13010 | 35028 ft | 471 kts | 71° |
| 2026-05-05 12:47 | 61.58134 | 110.26221 | 35027 ft | 472 kts | 71° |
| 2026-05-05 12:47 | 61.59879 | 110.39538 | 35027 ft | 472 kts | 71° |
| 2026-05-05 12:48 | 61.61545 | 110.52790 | 35026 ft | 472 kts | 72° |
| 2026-05-05 12:48 | 61.63211 | 110.66170 | 35027 ft | 472 kts | 72° |
| 2026-05-05 12:49 | 61.64900 | 110.79522 | 35025 ft | 472 kts | 72° |
| 2026-05-05 12:49 | 61.66595 | 110.92911 | 35023 ft | 473 kts | 72° |
| 2026-05-05 12:50 | 61.68267 | 111.06221 | 35021 ft | 473 kts | 72° |
| 2026-05-05 12:50 | 61.69936 | 111.19643 | 35023 ft | 473 kts | 72° |
| 2026-05-05 12:51 | 61.71585 | 111.33016 | 35020 ft | 473 kts | 72° |
| 2026-05-05 12:51 | 61.73230 | 111.46487 | 35015 ft | 473 kts | 72° |
| 2026-05-05 12:52 | 61.74819 | 111.59890 | 35013 ft | 473 kts | 73° |
| 2026-05-05 12:52 | 61.76401 | 111.73393 | 35006 ft | 473 kts | 72° |
| 2026-05-05 12:53 | 61.77995 | 111.86898 | 34998 ft | 473 kts | 72° |
| 2026-05-05 12:53 | 61.79575 | 112.00312 | 34996 ft | 473 kts | 72° |
| 2026-05-05 12:54 | 61.81777 | 112.20701 | 34989 ft | 475 kts | 76° |
| 2026-05-05 12:55 | 61.82966 | 112.34485 | 34986 ft | 475 kts | 76° |
| 2026-05-05 12:55 | 61.84127 | 112.48186 | 34983 ft | 475 kts | 76° |
| 2026-05-05 12:56 | 61.85302 | 112.61964 | 34975 ft | 475 kts | 76° |
| 2026-05-05 12:56 | 61.86474 | 112.75751 | 34971 ft | 475 kts | 76° |
| 2026-05-05 12:57 | 61.87633 | 112.89548 | 34964 ft | 475 kts | 76° |
| 2026-05-05 12:57 | 61.88778 | 113.03362 | 34967 ft | 475 kts | 77° |
| 2026-05-05 12:58 | 61.89908 | 113.17174 | 34959 ft | 476 kts | 77° |
| 2026-05-05 12:58 | 61.91027 | 113.31029 | 34951 ft | 476 kts | 77° |
| 2026-05-05 12:59 | 61.92124 | 113.44802 | 34947 ft | 476 kts | 77° |
| 2026-05-05 12:59 | 61.93214 | 113.58662 | 34947 ft | 476 kts | 77° |
| 2026-05-05 13:00 | 61.94824 | 113.79496 | 34943 ft | 476 kts | 77° |
| 2026-05-05 13:01 | 61.96810 | 114.07278 | 34938 ft | 476 kts | 78° |
| 2026-05-05 13:01 | 61.97820 | 114.21233 | 34938 ft | 476 kts | 78° |
| 2026-05-05 13:02 | 61.98820 | 114.35161 | 34936 ft | 476 kts | 78° |
| 2026-05-05 13:02 | 61.99801 | 114.49007 | 34944 ft | 476 kts | 78° |
| 2026-05-05 13:03 | 62.00787 | 114.62998 | 34942 ft | 476 kts | 78° |
| 2026-05-05 13:03 | 62.01759 | 114.76959 | 34951 ft | 476 kts | 78° |
| 2026-05-05 13:04 | 62.02712 | 114.90852 | 34953 ft | 476 kts | 78° |
| 2026-05-05 13:04 | 62.03655 | 115.04820 | 34955 ft | 476 kts | 78° |
| 2026-05-05 13:05 | 62.04561 | 115.18813 | 34955 ft | 476 kts | 79° |
| 2026-05-05 13:05 | 62.05439 | 115.32743 | 34964 ft | 476 kts | 79° |
| 2026-05-05 13:06 | 62.06329 | 115.46753 | 34963 ft | 476 kts | 79° |
| 2026-05-05 13:06 | 62.07211 | 115.60779 | 34969 ft | 476 kts | 79° |
| 2026-05-05 13:07 | 62.08063 | 115.74711 | 34968 ft | 476 kts | 79° |
| 2026-05-05 13:07 | 62.08918 | 115.88746 | 34973 ft | 476 kts | 79° |
| 2026-05-05 13:08 | 62.09763 | 116.02715 | 34973 ft | 476 kts | 79° |
| 2026-05-05 13:08 | 62.10599 | 116.16769 | 34973 ft | 476 kts | 79° |
| 2026-05-05 13:09 | 62.11415 | 116.30731 | 34976 ft | 476 kts | 79° |
| 2026-05-05 13:09 | 62.12221 | 116.44782 | 34981 ft | 476 kts | 79° |
| 2026-05-05 13:10 | 62.13013 | 116.58837 | 34978 ft | 475 kts | 79° |
| 2026-05-05 13:10 | 62.13753 | 116.72785 | 34982 ft | 475 kts | 80° |
| 2026-05-05 13:11 | 62.14474 | 116.86849 | 34982 ft | 475 kts | 80° |
| 2026-05-05 13:11 | 62.15209 | 117.00929 | 34980 ft | 475 kts | 80° |
| 2026-05-05 13:12 | 62.15930 | 117.14913 | 34979 ft | 475 kts | 81° |
| 2026-05-05 13:12 | 62.16624 | 117.28979 | 34976 ft | 475 kts | 81° |
| 2026-05-05 13:13 | 62.17308 | 117.42963 | 34977 ft | 475 kts | 81° |
| 2026-05-05 13:13 | 62.17991 | 117.57040 | 34976 ft | 474 kts | 81° |
| 2026-05-05 13:14 | 62.18609 | 117.71138 | 34974 ft | 475 kts | 82° |
| 2026-05-05 13:14 | 62.19077 | 117.85268 | 34971 ft | 475 kts | 83° |
| 2026-05-05 13:15 | 62.19518 | 117.99312 | 34974 ft | 475 kts | 83° |
| 2026-05-05 13:15 | 62.19961 | 118.13438 | 34959 ft | 474 kts | 83° |
| 2026-05-05 13:16 | 62.20397 | 118.27533 | 34966 ft | 474 kts | 83° |
| 2026-05-05 13:16 | 62.20812 | 118.41635 | 34964 ft | 474 kts | 83° |
| 2026-05-05 13:17 | 62.21185 | 118.55642 | 34967 ft | 474 kts | 83° |
| 2026-05-05 13:17 | 62.21563 | 118.69737 | 34962 ft | 473 kts | 83° |
| 2026-05-05 13:18 | 62.21939 | 118.83860 | 34966 ft | 473 kts | 83° |
| 2026-05-05 13:18 | 62.22301 | 118.97846 | 34967 ft | 473 kts | 83° |
| 2026-05-05 13:19 | 62.22652 | 119.11991 | 34961 ft | 473 kts | 84° |
| 2026-05-05 13:19 | 62.22974 | 119.26081 | 34960 ft | 473 kts | 84° |
| 2026-05-05 13:20 | 62.23295 | 119.40143 | 34959 ft | 473 kts | 84° |
| 2026-05-05 13:20 | 62.23622 | 119.54227 | 34961 ft | 473 kts | 84° |
| 2026-05-05 13:21 | 62.23938 | 119.68238 | 34959 ft | 473 kts | 84° |
| 2026-05-05 13:21 | 62.24243 | 119.82351 | 34953 ft | 472 kts | 84° |
| 2026-05-05 13:22 | 62.24532 | 119.96435 | 34951 ft | 472 kts | 84° |
| 2026-05-05 13:22 | 62.24805 | 120.10430 | 34953 ft | 472 kts | 84° |
| 2026-05-05 13:23 | 62.25065 | 120.24521 | 34951 ft | 472 kts | 84° |
| 2026-05-05 13:23 | 62.25311 | 120.38628 | 34943 ft | 472 kts | 84° |
| 2026-05-05 13:24 | 62.25543 | 120.52722 | 34945 ft | 472 kts | 84° |
| 2026-05-05 13:24 | 62.25755 | 120.66460 | 34942 ft | 472 kts | 85° |
| 2026-05-05 13:25 | 62.25958 | 120.80553 | 34941 ft | 472 kts | 85° |
| 2026-05-05 13:25 | 62.26138 | 120.94650 | 34952 ft | 472 kts | 85° |
| 2026-05-05 13:26 | 62.26238 | 121.08770 | 34949 ft | 472 kts | 85° |
| 2026-05-05 13:26 | 62.26355 | 121.22777 | 34951 ft | 472 kts | 85° |
| 2026-05-05 13:27 | 62.26493 | 121.36858 | 34946 ft | 472 kts | 85° |
| 2026-05-05 13:27 | 62.26627 | 121.50968 | 34937 ft | 472 kts | 85° |
| 2026-05-05 13:28 | 62.26746 | 121.65068 | 34941 ft | 472 kts | 85° |
| 2026-05-05 13:28 | 62.26849 | 121.79095 | 34937 ft | 472 kts | 86° |
| 2026-05-05 13:29 | 62.26939 | 121.93229 | 34938 ft | 472 kts | 86° |
| 2026-05-05 13:29 | 62.27013 | 122.07346 | 34935 ft | 472 kts | 86° |
| 2026-05-05 13:30 | 62.27073 | 122.21356 | 34933 ft | 472 kts | 86° |
| 2026-05-05 13:30 | 62.27119 | 122.35491 | 34930 ft | 472 kts | 86° |
| 2026-05-05 13:31 | 62.27151 | 122.49525 | 34928 ft | 473 kts | 86° |
| 2026-05-05 13:31 | 62.27169 | 122.63634 | 34930 ft | 473 kts | 86° |
| 2026-05-05 13:32 | 62.27139 | 122.77777 | 34923 ft | 473 kts | 88° |
| 2026-05-05 13:32 | 62.27056 | 122.91924 | 34923 ft | 473 kts | 87° |
| 2026-05-05 13:33 | 62.27003 | 123.05967 | 34920 ft | 473 kts | 87° |
| 2026-05-05 13:33 | 62.26960 | 123.20133 | 34917 ft | 473 kts | 87° |
| 2026-05-05 13:34 | 62.26909 | 123.34181 | 34920 ft | 473 kts | 87° |
| 2026-05-05 13:34 | 62.26841 | 123.48323 | 34916 ft | 473 kts | 88° |
| 2026-05-05 13:35 | 62.26759 | 123.62456 | 34912 ft | 473 kts | 88° |
| 2026-05-05 13:35 | 62.26661 | 123.76612 | 34909 ft | 473 kts | 88° |
| 2026-05-05 13:36 | 62.26533 | 123.90671 | 34907 ft | 474 kts | 88° |
| 2026-05-05 13:36 | 62.26364 | 124.04850 | 34905 ft | 474 kts | 88° |
| 2026-05-05 13:37 | 62.26211 | 124.18919 | 34904 ft | 474 kts | 88° |
| 2026-05-05 13:37 | 62.26059 | 124.33094 | 34903 ft | 474 kts | 89° |
| 2026-05-05 13:38 | 62.25895 | 124.47281 | 34898 ft | 475 kts | 89° |
| 2026-05-05 13:38 | 62.25748 | 124.59079 | 34895 ft | 475 kts | 89° |
| 2026-05-05 13:39 | 62.25524 | 124.75576 | 34895 ft | 475 kts | 89° |
| 2026-05-05 13:39 | 62.25351 | 124.87376 | 34890 ft | 476 kts | 89° |
| 2026-05-05 13:40 | 62.25093 | 125.03893 | 34889 ft | 476 kts | 89° |
| 2026-05-05 13:40 | 62.24895 | 125.15795 | 34884 ft | 476 kts | 90° |
| 2026-05-05 13:41 | 62.24646 | 125.29919 | 34883 ft | 476 kts | 90° |
| 2026-05-05 13:41 | 62.24382 | 125.44135 | 34875 ft | 476 kts | 90° |
| 2026-05-05 13:42 | 62.24102 | 125.58365 | 34874 ft | 477 kts | 90° |
| 2026-05-05 13:42 | 62.23757 | 125.72575 | 34873 ft | 477 kts | 91° |
| 2026-05-05 13:43 | 62.23385 | 125.86806 | 34871 ft | 478 kts | 91° |
| 2026-05-05 13:43 | 62.23043 | 126.00963 | 34863 ft | 478 kts | 91° |
| 2026-05-05 13:44 | 62.22707 | 126.15109 | 34778 ft | 475 kts | 91° |
| 2026-05-05 13:44 | 62.22534 | 126.22191 | 34560 ft | 474 kts | 91° |
| 2026-05-05 13:44 | 62.22358 | 126.29262 | 34163 ft | 475 kts | 91° |
| 2026-05-05 13:45 | 62.22178 | 126.36321 | 33518 ft | 473 kts | 91° |
| 2026-05-05 13:45 | 62.21995 | 126.43344 | 32886 ft | 471 kts | 91° |
| 2026-05-05 13:45 | 62.21808 | 126.50343 | 32272 ft | 469 kts | 90° |
| 2026-05-05 13:45 | 62.21618 | 126.57325 | 31678 ft | 468 kts | 90° |
| 2026-05-05 13:46 | 62.21426 | 126.64266 | 31101 ft | 467 kts | 90° |
| 2026-05-05 13:46 | 62.21231 | 126.71219 | 30525 ft | 466 kts | 89° |
| 2026-05-05 13:46 | 62.21036 | 126.78048 | 29951 ft | 465 kts | 89° |
| 2026-05-05 13:46 | 62.20835 | 126.84964 | 29254 ft | 464 kts | 89° |
| 2026-05-05 13:47 | 62.20654 | 126.91878 | 28608 ft | 466 kts | 89° |
| 2026-05-05 13:47 | 62.20519 | 126.98828 | 27924 ft | 467 kts | 88° |
| 2026-05-05 13:47 | 62.20418 | 127.05796 | 27238 ft | 469 kts | 88° |
| 2026-05-05 13:47 | 62.20334 | 127.12802 | 26548 ft | 470 kts | 88° |
| 2026-05-05 13:48 | 62.20254 | 127.19794 | 25872 ft | 467 kts | 88° |
| 2026-05-05 13:48 | 62.20172 | 127.26740 | 25199 ft | 463 kts | 88° |
| 2026-05-05 13:48 | 62.20087 | 127.33620 | 24537 ft | 459 kts | 88° |
| 2026-05-05 13:48 | 62.19999 | 127.40342 | 23886 ft | 455 kts | 88° |
| 2026-05-05 13:49 | 62.19907 | 127.47099 | 23185 ft | 451 kts | 88° |
| 2026-05-05 13:49 | 62.19812 | 127.53800 | 22460 ft | 447 kts | 89° |
| 2026-05-05 13:49 | 62.19715 | 127.60445 | 21789 ft | 444 kts | 89° |
| 2026-05-05 13:49 | 62.19615 | 127.67037 | 21135 ft | 441 kts | 89° |
| 2026-05-05 13:50 | 62.19513 | 127.73614 | 20494 ft | 438 kts | 90° |
| 2026-05-05 13:50 | 62.19408 | 127.80117 | 19865 ft | 435 kts | 90° |
| 2026-05-05 13:50 | 62.19300 | 127.86583 | 19241 ft | 432 kts | 90° |
| 2026-05-05 13:50 | 62.19192 | 127.92919 | 18622 ft | 429 kts | 90° |
| 2026-05-05 13:51 | 62.19081 | 127.99300 | 17983 ft | 426 kts | 90° |
| 2026-05-05 13:51 | 62.18967 | 128.05621 | 17302 ft | 423 kts | 91° |
| 2026-05-05 13:51 | 62.18851 | 128.11913 | 16664 ft | 420 kts | 91° |
| 2026-05-05 13:51 | 62.18733 | 128.18139 | 16046 ft | 418 kts | 91° |
| 2026-05-05 13:52 | 62.18613 | 128.24345 | 15439 ft | 415 kts | 91° |
| 2026-05-05 13:52 | 62.18492 | 128.30504 | 14843 ft | 413 kts | 91° |
| 2026-05-05 13:52 | 62.18368 | 128.36613 | 14243 ft | 410 kts | 92° |
| 2026-05-05 13:52 | 62.18244 | 128.42633 | 13662 ft | 408 kts | 92° |
| 2026-05-05 13:53 | 62.18116 | 128.48688 | 13021 ft | 405 kts | 92° |
| 2026-05-05 13:53 | 62.17986 | 128.54689 | 12408 ft | 402 kts | 92° |
| 2026-05-05 13:53 | 62.17855 | 128.60644 | 11820 ft | 398 kts | 92° |
| 2026-05-05 13:53 | 62.17717 | 128.66563 | 11293 ft | 395 kts | 93° |
| 2026-05-05 13:54 | 62.17550 | 128.72395 | 11133 ft | 393 kts | 93° |
| 2026-05-05 13:54 | 62.17367 | 128.78075 | 11047 ft | 376 kts | 96° |
| 2026-05-05 13:54 | 62.16796 | 128.83328 | 10962 ft | 353 kts | 114° |
| 2026-05-05 13:54 | 62.15622 | 128.87726 | 10844 ft | 328 kts | 126° |
| 2026-05-05 13:55 | 62.14272 | 128.91530 | 10703 ft | 313 kts | 130° |
| 2026-05-05 13:55 | 62.12916 | 128.95104 | 10344 ft | 307 kts | 130° |
| 2026-05-05 13:55 | 62.11564 | 128.98649 | 9787 ft | 306 kts | 130° |
| 2026-05-05 13:55 | 62.10264 | 129.02092 | 9211 ft | 296 kts | 130° |
| 2026-05-05 13:56 | 62.08996 | 129.05473 | 8664 ft | 288 kts | 129° |
| 2026-05-05 13:56 | 62.07757 | 129.08792 | 8193 ft | 284 kts | 129° |
| 2026-05-05 13:56 | 62.06531 | 129.12090 | 7739 ft | 282 kts | 129° |
| 2026-05-05 13:56 | 62.05312 | 129.15377 | 7288 ft | 284 kts | 129° |
| 2026-05-05 13:57 | 62.04082 | 129.18702 | 6806 ft | 286 kts | 128° |
| 2026-05-05 13:57 | 62.02848 | 129.22035 | 6372 ft | 285 kts | 128° |
| 2026-05-05 13:57 | 62.01658 | 129.25251 | 5950 ft | 276 kts | 128° |
| 2026-05-05 13:57 | 62.00468 | 129.28462 | 5528 ft | 274 kts | 128° |
| 2026-05-05 13:58 | 61.99315 | 129.31572 | 5121 ft | 258 kts | 128° |
| 2026-05-05 13:58 | 61.98258 | 129.34484 | 4727 ft | 240 kts | 126° |
| 2026-05-05 13:58 | 61.97289 | 129.37212 | 4405 ft | 222 kts | 126° |
| 2026-05-05 13:58 | 61.96400 | 129.39725 | 4073 ft | 204 kts | 126° |
| 2026-05-05 13:59 | 61.94795 | 129.44313 | 3555 ft | 191 kts | 121° |
| 2026-05-05 13:59 | 61.94245 | 129.46830 | 3249 ft | 185 kts | 93° |
| 2026-05-05 14:00 | 61.94841 | 129.51794 | 2821 ft | 172 kts | 58° |
| 2026-05-05 14:00 | 61.95511 | 129.53748 | 2623 ft | 161 kts | 37° |
| 2026-05-05 14:00 | 61.96321 | 129.55353 | 2628 ft | 157 kts | 35° |
| 2026-05-05 14:00 | 61.97109 | 129.56983 | 2637 ft | 158 kts | 40° |
| 2026-05-05 14:01 | 61.97848 | 129.58715 | 2622 ft | 157 kts | 37° |
| 2026-05-05 14:01 | 61.98636 | 129.60319 | 2619 ft | 157 kts | 36° |
| 2026-05-05 14:01 | 61.99420 | 129.61886 | 2428 ft | 156 kts | 35° |
| 2026-05-05 14:01 | 62.00209 | 129.63468 | 2173 ft | 156 kts | 35° |
| 2026-05-05 14:02 | 62.01000 | 129.65024 | 1957 ft | 154 kts | 32° |
| 2026-05-05 14:02 | 62.01836 | 129.66426 | 1802 ft | 151 kts | 26° |
| 2026-05-05 14:02 | 62.02717 | 129.67650 | 1819 ft | 151 kts | 24° |
| 2026-05-05 14:02 | 62.03602 | 129.68883 | 1714 ft | 152 kts | 25° |
| 2026-05-05 14:03 | 62.04478 | 129.70140 | 1483 ft | 152 kts | 24° |
| 2026-05-05 14:03 | 62.05362 | 129.71390 | 1147 ft | 154 kts | 28° |
| 2026-05-05 14:03 | 62.06247 | 129.72685 | 893 ft | 157 kts | 30° |
| 2026-05-05 14:03 | 62.07144 | 129.74039 | 625 ft | 158 kts | 32° |
| 2026-05-05 14:04 | 62.08029 | 129.75430 | 392 ft | 151 kts | 32° |
| 2026-05-05 14:04 | 62.08726 | 129.76531 | 335 ft | 100 kts | 37° |
| 2026-05-05 14:04 | 62.09182 | 129.77264 | 336 ft | 65 kts | 37° |
| 2026-05-05 14:04 | 62.09526 | 129.77813 | 332 ft | 48 kts | 37° |
| 2026-05-05 14:05 | 62.09711 | 129.78111 | 331 ft | 25 kts | 37° |
| 2026-05-05 14:05 | 62.09840 | 129.78315 | 332 ft | 14 kts | 36° |
| 2026-05-05 14:05 | 62.09911 | 129.78424 | 333 ft | 7 kts | 29° |
| 2026-05-05 14:05 | 62.09938 | 129.78435 | 332 ft | 3 kts | 7° |
| 2026-05-05 14:06 | 62.09958 | 129.78432 | 331 ft | 2 kts | 349° |
| 2026-05-05 14:06 | 62.09965 | 129.78424 | 331 ft | 1 kts | 332° |
| 2026-05-05 14:06 | 62.09971 | 129.78411 | 336 ft | 1 kts | 320° |
| 2026-05-05 14:06 | 62.09979 | 129.78388 | 333 ft | 4 kts | 308° |
| 2026-05-05 14:07 | 62.10010 | 129.78302 | 335 ft | 11 kts | 307° |
| 2026-05-05 14:07 | 62.10069 | 129.78136 | 335 ft | 17 kts | 306° |
| 2026-05-05 14:07 | 62.10134 | 129.77947 | 336 ft | 13 kts | 307° |
| 2026-05-05 14:07 | 62.10186 | 129.77796 | 335 ft | 12 kts | 304° |
| 2026-05-05 14:08 | 62.10230 | 129.77643 | 335 ft | 7 kts | 298° |
| 2026-05-05 14:08 | 62.10233 | 129.77557 | 335 ft | 5 kts | 256° |
| 2026-05-05 14:08 | 62.10218 | 129.77493 | 333 ft | 6 kts | 243° |
| 2026-05-05 14:08 | 62.10192 | 129.77385 | 335 ft | 10 kts | 243° |
| 2026-05-05 14:09 | 62.10153 | 129.77225 | 336 ft | 14 kts | 242° |
| 2026-05-05 14:09 | 62.10117 | 129.77084 | 335 ft | 9 kts | 239° |
| 2026-05-05 14:09 | 62.10073 | 129.76992 | 336 ft | 6 kts | 216° |
| 2026-05-05 14:09 | 62.10028 | 129.76924 | 333 ft | 9 kts | 214° |
| 2026-05-05 14:10 | 62.09973 | 129.76845 | 336 ft | 7 kts | 214° |
| 2026-05-05 14:10 | 62.09922 | 129.76771 | 335 ft | 8 kts | 214° |
| 2026-05-05 14:10 | 62.09864 | 129.76689 | 334 ft | 12 kts | 214° |
| 2026-05-05 14:10 | 62.09789 | 129.76580 | 333 ft | 15 kts | 214° |
| 2026-05-05 14:11 | 62.09699 | 129.76451 | 335 ft | 16 kts | 214° |
| 2026-05-05 14:11 | 62.09644 | 129.76378 | 335 ft | 6 kts | 211° |
| 2026-05-05 14:11 | 62.09610 | 129.76335 | 334 ft | 5 kts | 210° |
| 2026-05-05 14:11 | 62.09578 | 129.76297 | 336 ft | 6 kts | 209° |
| 2026-05-05 14:12 | 62.09539 | 129.76250 | 336 ft | 7 kts | 209° |
| 2026-05-05 14:12 | 62.09492 | 129.76194 | 336 ft | 8 kts | 209° |
| 2026-05-05 14:12 | 62.09438 | 129.76128 | 336 ft | 10 kts | 210° |
| 2026-05-05 14:12 | 62.09376 | 129.76053 | 334 ft | 11 kts | 210° |
| 2026-05-05 14:13 | 62.09311 | 129.75973 | 336 ft | 10 kts | 210° |
| 2026-05-05 14:13 | 62.09253 | 129.75902 | 333 ft | 9 kts | 209° |
| 2026-05-05 14:13 | 62.09201 | 129.75840 | 336 ft | 8 kts | 209° |
| 2026-05-05 14:13 | 62.09155 | 129.75786 | 333 ft | 7 kts | 209° |
| 2026-05-05 14:14 | 62.09116 | 129.75737 | 336 ft | 6 kts | 211° |
| 2026-05-05 14:14 | 62.09086 | 129.75707 | 335 ft | 2 kts | 194° |
| 2026-05-05 14:14 | 62.09079 | 129.75706 | 335 ft | 1 kts | 185° |
| 2026-05-05 14:14 | 62.09071 | 129.75710 | 335 ft | 2 kts | 172° |
| 2026-05-05 14:15 | 62.09065 | 129.75717 | 336 ft | 1 kts | 154° |
| 2026-05-05 14:15 | 62.09057 | 129.75732 | 336 ft | 2 kts | 140° |
| 2026-05-05 14:15 | 62.09050 | 129.75756 | 335 ft | 3 kts | 124° |
| 2026-05-05 14:15 | 62.09044 | 129.75779 | 335 ft | 1 kts | 120° |
| 2026-05-05 14:16 | 62.09041 | 129.75788 | 335 ft | 1 kts | 120° |
| 2026-05-05 14:16 | 62.09040 | 129.75793 | 335 ft | 0 kts | 120° |
| 2026-05-05 14:16 | 62.09040 | 129.75791 | 335 ft | 0 kts | 120° |